Time;durP1;ratioP1;P1;durP2;ratioP2;P2;SDS_P1;SDS_P2;PMS_P1;PMS_P2;Temp;Humidity;BMP_temperature;BMP_pressure;BME280_temperature;BME280_humidity;BME280_pressure;Samples;Min_cycle;Max_cycle;Signal;HPM_P1;HPM_P2
2023/05/13 00:01:16;;;;;;;;;;;10.70;99.90;;;;;;8199556;29;19937;-82
2023/05/13 00:05:17;;;;;;;;;;;10.70;99.90;;;;;;8199388;29;20363;-81
2023/05/13 00:09:24;;;;;;;;;;;10.80;99.90;;;;;;8198461;28;22112;-81
2023/05/13 00:13:25;;;;;;;;;;;10.60;99.90;;;;;;8200104;28;20449;-80
2023/05/13 00:17:35;;;;;;;;;;;10.50;99.90;;;;;;8197139;29;19918;-81
2023/05/13 00:21:36;;;;;;;;;;;10.50;99.90;;;;;;8196393;28;19921;-81
2023/05/13 00:25:40;;;;;;;;;;;10.40;99.90;;;;;;8200679;28;19918;-81
2023/05/13 00:29:47;;;;;;;;;;;10.50;99.90;;;;;;8193992;28;19917;-81
2023/05/13 00:33:51;;;;;;;;;;;10.50;99.90;;;;;;8194377;29;19915;-81
2023/05/13 00:37:51;;;;;;;;;;;10.50;99.90;;;;;;8183762;29;20067;-82
2023/05/13 00:41:52;;;;;;;;;;;10.70;99.90;;;;;;8180334;28;19961;-81
2023/05/13 00:45:55;;;;;;;;;;;10.40;99.90;;;;;;8199440;28;19968;-81
2023/05/13 00:49:56;;;;;;;;;;;10.40;99.90;;;;;;8190940;29;19942;-81
2023/05/13 00:53:57;;;;;;;;;;;10.40;99.90;;;;;;8198395;29;19910;-80
2023/05/13 00:57:58;;;;;;;;;;;10.30;99.90;;;;;;8199311;29;20398;-82
2023/05/13 01:01:58;;;;;;;;;;;10.20;99.90;;;;;;8201541;28;19914;-80
2023/05/13 01:06:31;;;;;;;;;;;10.30;99.90;;;;;;8205720;29;19925;-81
2023/05/13 01:10:35;;;;;;;;;;;10.30;99.90;;;;;;8165069;29;20161;-82
2023/05/13 01:14:41;;;;;;;;;;;10.30;99.90;;;;;;8197820;28;19921;-81
2023/05/13 01:18:54;;;;;;;;;;;10.30;99.90;;;;;;8186118;29;19918;-81
2023/05/13 01:22:55;;;;;;;;;;;10.40;99.90;;;;;;8196185;29;19911;-81
2023/05/13 01:26:59;;;;;;;;;;;10.30;99.90;;;;;;8194462;29;19910;-81
2023/05/13 01:31:20;;;;;;;;;;;10.20;99.90;;;;;;8191863;29;20396;-82
2023/05/13 01:35:24;;;;;;;;;;;10.20;99.90;;;;;;8181831;29;20115;-81
2023/05/13 01:39:25;;;;;;;;;;;10.20;99.90;;;;;;8195219;29;20013;-80
2023/05/13 01:43:25;;;;;;;;;;;10.30;99.90;;;;;;8200478;28;20376;-80
2023/05/13 01:47:26;;;;;;;;;;;10.10;99.90;;;;;;8200870;29;20005;-81
2023/05/13 01:51:27;;;;;;;;;;;10.10;99.90;;;;;;8201908;28;20681;-82
2023/05/13 01:55:27;;;;;;;;;;;9.90;99.90;;;;;;8226735;23;20604;-81
2023/05/13 01:59:28;;;;;;;;;;;9.90;99.90;;;;;;8203683;28;19922;-82
2023/05/13 02:03:28;;;;;;;;;;;9.90;99.90;;;;;;8174808;29;19910;-81
2023/05/13 02:07:29;;;;;;;;;;;9.90;99.90;;;;;;8197006;29;19915;-82
2023/05/13 02:11:29;;;;;;;;;;;9.90;99.90;;;;;;8196247;29;19937;-82
2023/05/13 02:15:30;;;;;;;;;;;9.90;99.90;;;;;;8194001;28;19986;-82
2023/05/13 02:19:30;;;;;;;;;;;9.80;99.90;;;;;;8189849;29;19925;-82
2023/05/13 02:23:30;;;;;;;;;;;9.70;99.90;;;;;;8195228;29;19911;-79
2023/05/13 02:27:31;;;;;;;;;;;9.80;99.90;;;;;;8189482;29;19914;-81
2023/05/13 02:31:31;;;;;;;;;;;9.80;99.90;;;;;;8187854;28;19954;-81
2023/05/13 02:35:32;;;;;;;;;;;9.90;99.90;;;;;;8183951;29;19914;-81
2023/05/13 02:39:32;;;;;;;;;;;10.00;99.90;;;;;;8194144;29;19990;-81
2023/05/13 02:43:33;;;;;;;;;;;10.20;99.90;;;;;;8201864;29;19957;-81
2023/05/13 02:47:33;;;;;;;;;;;10.10;99.90;;;;;;8202437;28;19914;-81
2023/05/13 02:51:34;;;;;;;;;;;10.10;99.90;;;;;;8198962;28;19922;-80
2023/05/13 02:55:34;;;;;;;;;;;10.30;99.90;;;;;;8199173;28;19918;-80
2023/05/13 02:59:35;;;;;;;;;;;10.10;99.90;;;;;;8192669;29;20449;-80
2023/05/13 03:03:35;;;;;;;;;;;10.20;99.90;;;;;;8197564;28;19918;-81
2023/05/13 03:07:36;;;;;;;;;;;10.00;99.90;;;;;;8197133;28;19921;-82
2023/05/13 03:11:36;;;;;;;;;;;10.10;99.90;;;;;;8194318;29;19922;-81
2023/05/13 03:15:37;;;;;;;;;;;10.20;99.90;;;;;;8191781;29;20380;-80
2023/05/13 03:19:37;;;;;;;;;;;10.30;99.90;;;;;;8181359;29;20296;-80
2023/05/13 03:23:38;;;;;;;;;;;10.20;99.90;;;;;;8182529;29;19910;-81
2023/05/13 03:27:38;;;;;;;;;;;10.20;99.90;;;;;;8188809;29;19922;-82
2023/05/13 03:31:39;;;;;;;;;;;10.10;99.90;;;;;;8172308;29;20523;-81
2023/05/13 03:35:39;;;;;;;;;;;9.90;99.90;;;;;;8180338;29;19990;-81
2023/05/13 03:39:40;;;;;;;;;;;9.90;99.90;;;;;;8185268;28;19915;-80
2023/05/13 03:43:40;;;;;;;;;;;10.00;99.90;;;;;;8189961;29;19915;-80
2023/05/13 03:47:40;;;;;;;;;;;9.90;99.90;;;;;;8200915;28;19910;-82
2023/05/13 03:51:41;;;;;;;;;;;9.80;99.90;;;;;;8191241;28;19922;-81
2023/05/13 03:55:42;;;;;;;;;;;9.70;99.90;;;;;;8194758;28;19925;-81
2023/05/13 03:59:42;;;;;;;;;;;9.80;99.90;;;;;;8196819;29;20379;-81
2023/05/13 04:03:45;;;;;;;;;;;9.80;99.90;;;;;;8190997;29;19929;-81
2023/05/13 04:07:45;;;;;;;;;;;9.80;99.90;;;;;;8190818;29;19934;-81
2023/05/13 04:11:46;;;;;;;;;;;9.80;99.90;;;;;;8201005;28;19953;-80
2023/05/13 04:15:46;;;;;;;;;;;9.80;99.90;;;;;;8185742;29;19915;-81
2023/05/13 04:19:47;;;;;;;;;;;9.70;99.90;;;;;;8195810;29;19915;-81
2023/05/13 04:23:47;;;;;;;;;;;9.80;99.90;;;;;;8184426;29;19978;-82
2023/05/13 04:27:48;;;;;;;;;;;9.80;99.90;;;;;;8189512;28;19918;-81
2023/05/13 04:31:48;;;;;;;;;;;9.90;99.90;;;;;;8183236;29;19918;-81
2023/05/13 04:35:49;;;;;;;;;;;9.90;99.90;;;;;;8192523;29;19911;-79
2023/05/13 04:39:49;;;;;;;;;;;9.90;99.90;;;;;;8200518;29;19930;-81
2023/05/13 04:43:49;;;;;;;;;;;10.00;99.90;;;;;;8196338;28;19915;-81
2023/05/13 04:47:50;;;;;;;;;;;9.90;99.90;;;;;;8194641;28;20002;-81
2023/05/13 04:51:50;;;;;;;;;;;9.90;99.90;;;;;;8211730;28;19914;-81
2023/05/13 04:55:56;;;;;;;;;;;10.00;99.90;;;;;;8209657;28;19922;-81
2023/05/13 04:59:56;;;;;;;;;;;9.90;99.90;;;;;;8211737;28;19997;-81
2023/05/13 05:03:57;;;;;;;;;;;9.90;99.90;;;;;;8197630;28;19914;-81
2023/05/13 05:07:57;;;;;;;;;;;9.90;99.90;;;;;;8197683;29;19917;-81
2023/05/13 05:11:58;;;;;;;;;;;9.80;99.90;;;;;;8194399;29;19915;-82
2023/05/13 05:15:58;;;;;;;;;;;9.90;99.90;;;;;;8213311;28;19921;-81
2023/05/13 05:19:59;;;;;;;;;;;10.10;99.90;;;;;;8205863;28;19937;-84
2023/05/13 05:24:00;;;;;;;;;;;10.00;99.90;;;;;;8186571;23;19942;-78
2023/05/13 05:28:03;;;;;;;;;;;10.10;99.90;;;;;;8142162;29;19915;-78
2023/05/13 05:32:04;;;;;;;;;;;10.20;99.90;;;;;;8170329;29;20122;-78
2023/05/13 05:36:05;;;;;;;;;;;10.20;99.90;;;;;;8157762;29;19938;-78
2023/05/13 05:40:05;;;;;;;;;;;10.20;99.90;;;;;;8168145;29;19930;-78
2023/05/13 05:44:06;;;;;;;;;;;10.20;99.90;;;;;;8165403;29;19915;-78
2023/05/13 05:48:07;;;;;;;;;;;10.10;99.90;;;;;;8145069;29;19918;-78
2023/05/13 05:52:09;;;;;;;;;;;10.10;99.90;;;;;;8160658;29;20413;-78
2023/05/13 05:56:10;;;;;;;;;;;10.10;99.90;;;;;;8144640;29;19922;-79
2023/05/13 06:00:12;;;;;;;;;;;10.10;99.90;;;;;;8163949;29;20371;-80
2023/05/13 06:04:13;;;;;;;;;;;10.20;99.90;;;;;;8151448;29;20443;-80
2023/05/13 06:08:13;;;;;;;;;;;10.10;99.90;;;;;;8148813;29;19922;-80
2023/05/13 06:12:14;;;;;;;;;;;10.20;99.90;;;;;;8164398;29;20020;-79
2023/05/13 06:16:16;;;;;;;;;;;10.20;99.90;;;;;;8138442;29;19943;-79
2023/05/13 06:20:17;;;;;;;;;;;10.10;99.90;;;;;;8140759;29;19926;-79
2023/05/13 06:24:17;;;;;;;;;;;10.20;99.90;;;;;;8148747;29;19919;-80
2023/05/13 06:28:20;;;;;;;;;;;10.30;99.90;;;;;;8148638;29;19958;-80
2023/05/13 06:32:21;;;;;;;;;;;10.40;99.90;;;;;;8164907;29;20017;-80
2023/05/13 06:36:21;;;;;;;;;;;10.30;99.90;;;;;;8144660;29;19914;-79
2023/05/13 06:40:22;;;;;;;;;;;10.40;99.90;;;;;;8169538;29;20406;-80
2023/05/13 06:44:52;;;;;;;;;;;10.40;99.90;;;;;;8160431;29;20008;-79
2023/05/13 06:48:54;;;;;;;;;;;10.30;99.90;;;;;;8144853;29;19919;-77
2023/05/13 06:52:54;;;;;;;;;;;10.60;99.90;;;;;;8157251;29;20491;-79
2023/05/13 06:56:55;;;;;;;;;;;10.60;99.90;;;;;;8138769;29;19930;-77
2023/05/13 07:00:55;;;;;;;;;;;10.50;99.90;;;;;;8158448;29;19919;-78
2023/05/13 07:04:56;;;;;;;;;;;10.60;99.90;;;;;;8138736;29;20465;-77
2023/05/13 07:08:56;;;;;;;;;;;10.70;99.90;;;;;;8162218;29;19918;-79
2023/05/13 07:12:59;;;;;;;;;;;10.60;99.90;;;;;;8158686;29;19972;-79
2023/05/13 07:16:59;;;;;;;;;;;10.50;99.90;;;;;;8152546;29;20165;-78
2023/05/13 07:21:00;;;;;;;;;;;10.40;99.90;;;;;;8132429;29;19918;-79
2023/05/13 07:25:00;;;;;;;;;;;10.50;99.90;;;;;;8164950;29;19973;-80
2023/05/13 07:29:01;;;;;;;;;;;10.60;99.90;;;;;;8143385;29;20724;-80
2023/05/13 07:33:01;;;;;;;;;;;10.70;99.90;;;;;;8138432;29;19943;-78
2023/05/13 07:37:03;;;;;;;;;;;10.80;99.90;;;;;;8155109;29;20652;-79
2023/05/13 07:41:03;;;;;;;;;;;10.70;99.90;;;;;;8159206;29;20001;-80
2023/05/13 07:45:04;;;;;;;;;;;10.70;99.90;;;;;;8147460;29;19926;-80
2023/05/13 07:49:07;;;;;;;;;;;10.80;99.90;;;;;;8161040;29;19921;-79
2023/05/13 07:53:07;;;;;;;;;;;10.90;99.90;;;;;;8147261;29;20335;-80
2023/05/13 07:57:08;;;;;;;;;;;11.00;99.90;;;;;;8149193;29;19966;-80
2023/05/13 08:01:08;;;;;;;;;;;11.00;99.90;;;;;;8162486;29;19915;-79
2023/05/13 08:05:09;;;;;;;;;;;11.00;99.90;;;;;;8147520;29;19921;-79
2023/05/13 08:09:11;;;;;;;;;;;11.10;99.90;;;;;;8166170;29;19915;-78
2023/05/13 08:13:11;;;;;;;;;;;11.20;99.90;;;;;;8160513;29;19918;-79
2023/05/13 08:17:12;;;;;;;;;;;11.10;99.90;;;;;;8166496;29;19911;-78
2023/05/13 08:21:12;;;;;;;;;;;11.10;99.90;;;;;;8149259;29;19961;-81
2023/05/13 08:25:14;;;;;;;;;;;11.00;99.90;;;;;;8151409;29;20388;-79
2023/05/13 08:29:15;;;;;;;;;;;10.90;99.90;;;;;;8150699;29;20592;-79
2023/05/13 08:33:15;;;;;;;;;;;10.90;99.90;;;;;;8166660;29;19950;-79
2023/05/13 08:37:16;;;;;;;;;;;11.00;99.90;;;;;;8166977;29;20352;-79
2023/05/13 08:41:17;;;;;;;;;;;11.50;99.90;;;;;;8149184;29;20587;-78
2023/05/13 08:45:19;;;;;;;;;;;11.50;99.90;;;;;;8166146;29;19922;-79
2023/05/13 08:49:20;;;;;;;;;;;11.40;99.90;;;;;;8165183;29;19915;-79
2023/05/13 08:53:21;;;;;;;;;;;11.30;99.90;;;;;;8181691;29;19939;-79
2023/05/13 08:57:21;;;;;;;;;;;11.00;99.90;;;;;;8149252;29;19957;-78
2023/05/13 09:01:23;;;;;;;;;;;11.00;99.90;;;;;;8149324;29;20208;-79
2023/05/13 09:05:23;;;;;;;;;;;11.00;99.90;;;;;;8158533;29;19953;-77
2023/05/13 09:09:24;;;;;;;;;;;10.90;99.90;;;;;;8148341;29;19938;-78
2023/05/13 09:13:24;;;;;;;;;;;11.10;99.90;;;;;;8146581;29;19922;-79
2023/05/13 09:17:25;;;;;;;;;;;11.10;99.90;;;;;;8165019;29;20556;-79
2023/05/13 09:21:34;;;;;;;;;;;11.20;99.90;;;;;;8147250;29;19950;-79
2023/05/13 09:25:35;;;;;;;;;;;11.20;99.90;;;;;;8144077;29;19969;-79
2023/05/13 09:29:36;;;;;;;;;;;11.40;99.90;;;;;;8142701;29;19934;-79
2023/05/13 09:33:37;;;;;;;;;;;11.50;99.90;;;;;;8161238;29;20303;-79
2023/05/13 09:37:40;;;;;;;;;;;11.60;99.90;;;;;;8145833;29;19926;-80
2023/05/13 09:41:41;;;;;;;;;;;11.70;99.90;;;;;;8156695;29;19919;-79
2023/05/13 09:45:41;;;;;;;;;;;11.60;99.90;;;;;;8160350;29;19929;-80
2023/05/13 09:49:43;;;;;;;;;;;11.50;99.90;;;;;;8154109;29;19915;-79
2023/05/13 09:53:48;;;;;;;;;;;11.60;99.90;;;;;;8149871;29;20311;-80
2023/05/13 09:57:48;;;;;;;;;;;11.80;99.90;;;;;;8166593;29;20411;-79
2023/05/13 10:01:49;;;;;;;;;;;12.00;99.90;;;;;;8166959;29;19911;-79
2023/05/13 10:05:50;;;;;;;;;;;12.10;99.90;;;;;;8166566;29;19915;-80
2023/05/13 10:09:52;;;;;;;;;;;12.30;99.90;;;;;;8149444;29;19915;-78
2023/05/13 10:13:55;;;;;;;;;;;12.50;99.90;;;;;;8151499;29;19916;-80
2023/05/13 10:17:56;;;;;;;;;;;12.50;99.90;;;;;;8151278;29;19929;-79
2023/05/13 10:21:57;;;;;;;;;;;12.50;99.90;;;;;;8145957;29;19915;-79
2023/05/13 10:25:57;;;;;;;;;;;12.20;99.90;;;;;;8161302;29;19986;-79
2023/05/13 10:29:59;;;;;;;;;;;12.20;99.90;;;;;;8142011;29;19915;-79
2023/05/13 10:34:00;;;;;;;;;;;12.30;99.90;;;;;;8145483;29;20001;-79
2023/05/13 10:38:03;;;;;;;;;;;12.10;99.90;;;;;;8145815;29;19919;-79
2023/05/13 10:42:07;;;;;;;;;;;11.90;99.90;;;;;;8162265;29;19919;-78
2023/05/13 10:46:11;;;;;;;;;;;11.80;99.90;;;;;;8145361;29;20009;-77
2023/05/13 10:50:22;;;;;;;;;;;11.60;99.90;;;;;;8138732;29;19994;-78
2023/05/13 10:54:23;;;;;;;;;;;11.60;99.90;;;;;;8144875;29;19981;-79
2023/05/13 10:58:35;;;;;;;;;;;11.40;99.90;;;;;;8160093;29;19927;-78
2023/05/13 11:02:36;;;;;;;;;;;11.30;99.90;;;;;;8149049;29;20352;-79
2023/05/13 11:06:37;;;;;;;;;;;11.40;99.90;;;;;;8164168;29;19919;-79
2023/05/13 11:10:39;;;;;;;;;;;11.50;99.90;;;;;;8140169;29;20339;-79
2023/05/13 11:14:41;;;;;;;;;;;11.80;99.90;;;;;;8156479;29;19919;-79
2023/05/13 11:18:42;;;;;;;;;;;11.80;99.90;;;;;;8139669;29;19923;-79
2023/05/13 11:26:52;;;;;;;;;;;11.80;99.90;;;;;;8247090;28;20016;-82
2023/05/13 11:31:16;;;;;;;;;;;11.90;99.90;;;;;;8205928;28;20336;-83
2023/05/13 11:35:25;;;;;;;;;;;11.90;99.90;;;;;;8232276;28;19921;-83
2023/05/13 11:39:29;;;;;;;;;;;12.10;99.90;;;;;;8239043;28;20298;-82
2023/05/13 11:43:31;;;;;;;;;;;12.10;99.90;;;;;;8247945;28;19977;-83
2023/05/13 11:47:37;;;;;;;;;;;12.10;99.90;;;;;;8251004;28;19922;-83
2023/05/13 11:51:44;;;;;;;;;;;12.00;99.90;;;;;;8239483;28;19941;-82
2023/05/13 11:55:45;;;;;;;;;;;11.90;99.90;;;;;;8226551;28;19922;-82
2023/05/13 11:59:50;;;;;;;;;;;12.00;99.90;;;;;;8242865;28;20016;-82
2023/05/13 12:04:07;;;;;;;;;;;12.10;99.90;;;;;;8219224;28;20294;-82
2023/05/13 12:08:08;;;;;;;;;;;12.10;99.90;;;;;;8213023;28;19920;-82
2023/05/13 12:12:09;;;;;;;;;;;12.10;99.90;;;;;;8233723;28;20183;-83
2023/05/13 12:16:10;;;;;;;;;;;12.00;99.90;;;;;;8225712;28;19950;-83
2023/05/13 12:20:20;;;;;;;;;;;11.80;99.90;;;;;;8236051;28;19918;-82
2023/05/13 12:24:22;;;;;;;;;;;11.70;99.90;;;;;;8236030;28;19918;-82
2023/05/13 12:28:26;;;;;;;;;;;11.80;99.90;;;;;;8215203;28;19926;-82
2023/05/13 12:32:30;;;;;;;;;;;11.90;99.90;;;;;;8239395;28;20301;-83
2023/05/13 12:36:35;;;;;;;;;;;12.20;99.90;;;;;;8225427;28;19958;-81
2023/05/13 12:40:38;;;;;;;;;;;12.20;99.90;;;;;;8235040;28;20395;-82
2023/05/13 12:44:41;;;;;;;;;;;12.50;99.90;;;;;;8231010;28;19914;-80
2023/05/13 12:48:42;;;;;;;;;;;12.80;99.90;;;;;;8222480;28;19918;-83
2023/05/13 12:52:43;;;;;;;;;;;12.80;99.90;;;;;;8223911;28;19922;-82
2023/05/13 12:56:47;;;;;;;;;;;13.00;99.90;;;;;;8222781;28;19918;-82
2023/05/13 13:00:56;;;;;;;;;;;13.10;99.90;;;;;;8233225;28;19918;-82
2023/05/13 13:05:03;;;;;;;;;;;13.30;99.90;;;;;;8222400;28;19961;-84
2023/05/13 13:09:04;;;;;;;;;;;13.20;99.90;;;;;;8242829;28;19914;-83
2023/05/13 13:13:05;;;;;;;;;;;13.40;99.90;;;;;;8229266;28;19917;-83
2023/05/13 13:17:06;;;;;;;;;;;14.20;99.90;;;;;;8238223;28;19953;-81
2023/05/13 13:21:16;;;;;;;;;;;14.30;99.90;;;;;;8238051;28;19980;-83
2023/05/13 13:25:17;;;;;;;;;;;14.20;99.90;;;;;;8240216;28;19998;-83
2023/05/13 13:29:27;;;;;;;;;;;14.50;99.90;;;;;;8236146;28;19938;-82
2023/05/13 13:33:30;;;;;;;;;;;14.80;99.90;;;;;;8218721;28;19910;-83
2023/05/13 13:37:34;;;;;;;;;;;15.20;99.90;;;;;;8225534;28;19985;-82
2023/05/13 13:41:40;;;;;;;;;;;15.00;99.90;;;;;;8236334;28;19969;-83
2023/05/13 13:45:41;;;;;;;;;;;14.90;99.90;;;;;;8236343;28;20042;-82
2023/05/13 13:49:47;;;;;;;;;;;13.70;99.90;;;;;;8223363;28;20371;-83
2023/05/13 13:54:08;;;;;;;;;;;12.50;99.90;;;;;;8237550;28;20013;-85
2023/05/13 13:58:14;;;;;;;;;;;12.00;99.90;;;;;;8225144;28;20342;-85
2023/05/13 14:02:17;;;;;;;;;;;12.00;99.90;;;;;;8242376;28;19917;-85
2023/05/13 14:06:18;;;;;;;;;;;12.20;99.90;;;;;;8236489;28;19917;-84
2023/05/13 14:10:19;;;;;;;;;;;12.40;99.90;;;;;;8240574;28;19910;-84
2023/05/13 14:14:27;;;;;;;;;;;12.50;99.90;;;;;;8246460;28;19961;-84
2023/05/13 14:18:27;;;;;;;;;;;12.60;99.90;;;;;;8227548;28;19937;-86
2023/05/13 14:22:28;;;;;;;;;;;12.50;99.90;;;;;;8271929;28;19970;-85
2023/05/13 14:26:31;;;;;;;;;;;12.40;99.90;;;;;;8235554;28;19929;-84
2023/05/13 14:30:32;;;;;;;;;;;12.40;99.90;;;;;;8224665;28;19969;-84
2023/05/13 14:34:33;;;;;;;;;;;12.70;99.90;;;;;;8235698;28;19910;-85
2023/05/13 14:38:33;;;;;;;;;;;13.10;99.90;;;;;;8224803;28;19918;-84
2023/05/13 14:42:37;;;;;;;;;;;13.70;99.90;;;;;;8226784;28;19953;-85
2023/05/13 14:46:39;;;;;;;;;;;13.60;99.90;;;;;;8226894;28;19922;-84
2023/05/13 14:50:42;;;;;;;;;;;13.60;99.90;;;;;;8238429;28;20379;-86
2023/05/13 14:54:49;;;;;;;;;;;14.00;99.90;;;;;;8225380;28;19910;-86
2023/05/13 14:58:50;;;;;;;;;;;14.20;99.90;;;;;;8241344;28;19919;-84
2023/05/13 15:02:51;;;;;;;;;;;13.80;99.90;;;;;;8223484;28;19922;-84
2023/05/13 15:06:55;;;;;;;;;;;13.10;99.90;;;;;;8223269;28;19926;-85
2023/05/13 15:10:57;;;;;;;;;;;12.70;99.90;;;;;;8233194;28;20294;-84
2023/05/13 15:14:58;;;;;;;;;;;12.40;99.90;;;;;;8238173;28;19914;-85
2023/05/13 15:18:58;;;;;;;;;;;12.00;99.90;;;;;;8238714;28;19914;-84
2023/05/13 15:22:59;;;;;;;;;;;12.00;99.90;;;;;;8230525;28;19915;-85
2023/05/13 15:27:00;;;;;;;;;;;12.20;99.90;;;;;;8234879;28;19917;-84
2023/05/13 15:31:04;;;;;;;;;;;12.40;99.90;;;;;;8236647;28;19921;-84
2023/05/13 15:35:08;;;;;;;;;;;12.60;99.90;;;;;;8230984;28;19918;-85
2023/05/13 15:39:09;;;;;;;;;;;12.50;99.90;;;;;;8219477;28;19922;-87
2023/05/13 15:43:10;;;;;;;;;;;12.80;99.90;;;;;;8222058;28;19914;-85
2023/05/13 15:47:11;;;;;;;;;;;13.00;99.90;;;;;;8216107;28;19921;-83
2023/05/13 15:51:11;;;;;;;;;;;13.10;99.90;;;;;;8238008;28;19941;-84
2023/05/13 15:55:17;;;;;;;;;;;13.00;99.90;;;;;;8215629;28;19922;-85
2023/05/13 15:59:18;;;;;;;;;;;13.10;99.90;;;;;;8231639;28;19918;-86
2023/05/13 16:03:19;;;;;;;;;;;13.60;99.90;;;;;;8238000;28;19918;-85
2023/05/13 16:07:19;;;;;;;;;;;13.50;99.90;;;;;;8230182;28;19915;-84
2023/05/13 16:11:26;;;;;;;;;;;13.30;99.90;;;;;;8237614;28;20462;-84
2023/05/13 16:15:27;;;;;;;;;;;13.30;99.90;;;;;;8226183;28;19918;-84
2023/05/13 16:19:33;;;;;;;;;;;13.20;99.90;;;;;;8229599;28;20016;-84
2023/05/13 16:23:36;;;;;;;;;;;12.90;99.90;;;;;;8225648;28;20005;-84
2023/05/13 16:27:37;;;;;;;;;;;12.90;99.90;;;;;;8238137;28;19918;-86
2023/05/13 16:31:38;;;;;;;;;;;12.80;99.90;;;;;;8240605;28;20009;-84
2023/05/13 16:35:43;;;;;;;;;;;12.80;99.90;;;;;;8239784;28;19914;-85
2023/05/13 16:39:47;;;;;;;;;;;13.20;99.90;;;;;;8218365;28;19918;-84
2023/05/13 16:43:53;;;;;;;;;;;13.20;99.90;;;;;;8241130;28;19918;-86
2023/05/13 16:47:54;;;;;;;;;;;13.30;99.90;;;;;;8223749;28;19918;-84
2023/05/13 16:51:55;;;;;;;;;;;13.40;99.90;;;;;;8217938;28;19937;-84
2023/05/13 16:55:55;;;;;;;;;;;13.30;99.90;;;;;;8213736;28;20350;-82
2023/05/13 16:59:56;;;;;;;;;;;13.30;99.90;;;;;;8225511;28;19918;-82
2023/05/13 17:04:09;;;;;;;;;;;13.30;99.90;;;;;;8231088;28;19921;-80
2023/05/13 17:08:10;;;;;;;;;;;13.30;99.90;;;;;;8219192;28;19914;-82
2023/05/13 17:12:15;;;;;;;;;;;13.30;99.90;;;;;;8239753;28;19925;-83
2023/05/13 17:16:18;;;;;;;;;;;12.90;99.90;;;;;;8241247;28;20009;-83
2023/05/13 17:20:29;;;;;;;;;;;12.90;99.90;;;;;;8234468;28;19952;-81
2023/05/13 17:24:40;;;;;;;;;;;12.80;99.90;;;;;;8224480;28;19925;-82
2023/05/13 17:28:46;;;;;;;;;;;12.70;99.90;;;;;;8217366;28;19929;-82
2023/05/13 17:32:46;;;;;;;;;;;13.00;99.90;;;;;;8217406;28;21401;-83
2023/05/13 17:37:10;;;;;;;;;;;12.80;99.90;;;;;;8231574;28;19999;-82
2023/05/13 17:41:14;;;;;;;;;;;12.80;99.90;;;;;;8221039;28;19925;-83
2023/05/13 17:45:17;;;;;;;;;;;12.90;99.90;;;;;;8213636;28;20060;-82
2023/05/13 17:49:18;;;;;;;;;;;13.00;99.90;;;;;;8216362;28;19914;-82
2023/05/13 17:53:19;;;;;;;;;;;13.00;99.90;;;;;;8219941;28;19922;-83
2023/05/13 17:57:22;;;;;;;;;;;12.80;99.90;;;;;;8225531;28;20343;-83
2023/05/13 18:01:23;;;;;;;;;;;12.70;99.90;;;;;;8208155;28;20018;-83
2023/05/13 18:05:25;;;;;;;;;;;12.60;99.90;;;;;;8228158;28;19910;-82
2023/05/13 18:09:26;;;;;;;;;;;12.40;99.90;;;;;;8228322;28;19953;-82
2023/05/13 18:13:26;;;;;;;;;;;12.50;99.90;;;;;;8224238;28;19921;-83
2023/05/13 18:17:32;;;;;;;;;;;12.30;99.90;;;;;;8219980;28;19921;-82
2023/05/13 18:21:33;;;;;;;;;;;12.10;99.90;;;;;;8224034;28;19925;-83
2023/05/13 18:25:34;;;;;;;;;;;11.90;99.90;;;;;;8225904;28;20009;-83
2023/05/13 18:29:43;;;;;;;;;;;11.90;99.90;;;;;;8221281;28;19918;-83
2023/05/13 18:33:43;;;;;;;;;;;11.80;99.90;;;;;;8222200;28;19936;-82
2023/05/13 18:37:44;;;;;;;;;;;11.90;99.90;;;;;;8222490;28;19921;-83
2023/05/13 18:41:45;;;;;;;;;;;12.00;99.90;;;;;;8243245;28;19905;-82
2023/05/13 18:45:45;;;;;;;;;;;11.60;99.90;;;;;;8263289;28;19980;-82
2023/05/13 18:49:46;;;;;;;;;;;12.30;99.90;;;;;;8223581;28;20379;-83
2023/05/13 18:53:47;;;;;;;;;;;12.40;99.90;;;;;;8221879;28;20375;-81
2023/05/13 18:57:48;;;;;;;;;;;12.40;99.90;;;;;;8218066;28;19922;-81
2023/05/13 19:01:48;;;;;;;;;;;12.30;99.90;;;;;;8238524;28;19956;-82
2023/05/13 19:05:49;;;;;;;;;;;11.90;99.90;;;;;;8227513;28;20401;-81
2023/05/13 19:09:52;;;;;;;;;;;11.30;99.90;;;;;;8224328;28;19964;-82
2023/05/13 19:13:53;;;;;;;;;;;10.80;99.90;;;;;;8227608;28;19918;-82
2023/05/13 19:17:53;;;;;;;;;;;10.40;99.90;;;;;;8205119;28;19914;-82
2023/05/13 19:21:54;;;;;;;;;;;10.10;99.90;;;;;;8209701;28;20302;-82
2023/05/13 19:25:55;;;;;;;;;;;10.10;99.90;;;;;;8226698;28;19925;-82
2023/05/13 19:29:56;;;;;;;;;;;10.20;99.90;;;;;;8231492;28;20056;-81
2023/05/13 19:33:57;;;;;;;;;;;10.60;99.90;;;;;;8227277;28;19942;-82
2023/05/13 19:37:58;;;;;;;;;;;10.80;99.90;;;;;;8220048;28;19961;-80
2023/05/13 19:41:58;;;;;;;;;;;10.30;99.90;;;;;;8221824;28;19921;-82
2023/05/13 19:45:59;;;;;;;;;;;9.90;99.90;;;;;;8223001;28;19941;-82
2023/05/13 19:49:59;;;;;;;;;;;9.90;99.90;;;;;;8221900;28;19925;-82
2023/05/13 19:54:00;;;;;;;;;;;9.90;99.90;;;;;;8222423;28;19910;-85
2023/05/13 19:58:01;;;;;;;;;;;9.80;99.90;;;;;;8230701;28;19965;-84
2023/05/13 20:02:01;;;;;;;;;;;9.70;99.90;;;;;;8221034;28;19910;-85
2023/05/13 20:06:02;;;;;;;;;;;9.50;99.90;;;;;;8241628;28;20406;-84
2023/05/13 20:10:03;;;;;;;;;;;9.30;99.90;;;;;;8238804;28;19921;-84
2023/05/13 20:14:03;;;;;;;;;;;9.00;99.90;;;;;;8216293;28;20584;-85
2023/05/13 20:18:04;;;;;;;;;;;8.70;99.90;;;;;;8223810;28;19914;-84
2023/05/13 20:22:04;;;;;;;;;;;8.50;99.90;;;;;;8227292;28;19996;-84
2023/05/13 20:26:05;;;;;;;;;;;8.80;99.90;;;;;;8228835;28;19919;-84
2023/05/13 20:30:06;;;;;;;;;;;8.70;99.90;;;;;;8232750;28;19914;-84
2023/05/13 20:34:06;;;;;;;;;;;8.40;99.90;;;;;;8226436;28;19925;-84
2023/05/13 20:38:07;;;;;;;;;;;8.10;99.90;;;;;;8226027;28;19953;-85
2023/05/13 20:42:08;;;;;;;;;;;7.90;99.90;;;;;;8229173;28;19926;-85
2023/05/13 20:46:13;;;;;;;;;;;7.70;99.90;;;;;;8225867;28;19925;-85
2023/05/13 20:50:14;;;;;;;;;;;7.70;99.90;;;;;;8228204;28;20343;-88
2023/05/13 20:54:14;;;;;;;;;;;7.70;99.90;;;;;;8223044;28;19977;-84
2023/05/13 20:58:15;;;;;;;;;;;7.60;99.90;;;;;;8219289;28;19929;-84
2023/05/13 21:02:16;;;;;;;;;;;7.70;99.90;;;;;;8222735;28;20013;-84
2023/05/13 21:06:16;;;;;;;;;;;7.90;99.90;;;;;;8227345;28;19918;-84
2023/05/13 21:10:17;;;;;;;;;;;8.00;99.90;;;;;;8241083;28;20310;-84
2023/05/13 21:14:17;;;;;;;;;;;8.40;99.90;;;;;;8225289;28;19922;-86
2023/05/13 21:18:18;;;;;;;;;;;8.50;99.90;;;;;;8225296;28;19930;-85
2023/05/13 21:22:18;;;;;;;;;;;8.50;99.90;;;;;;8223425;28;19976;-84
2023/05/13 21:26:20;;;;;;;;;;;8.50;99.90;;;;;;8227840;28;20446;-84
2023/05/13 21:30:21;;;;;;;;;;;8.50;99.90;;;;;;8215092;28;20004;-84
2023/05/13 21:34:21;;;;;;;;;;;8.70;99.90;;;;;;8224996;28;19917;-84
2023/05/13 21:38:22;;;;;;;;;;;8.70;99.90;;;;;;8223738;28;19914;-85
2023/05/13 21:42:22;;;;;;;;;;;8.70;99.90;;;;;;8223429;28;19914;-84
2023/05/13 21:46:23;;;;;;;;;;;8.80;99.90;;;;;;8223394;28;19937;-85
2023/05/13 21:50:23;;;;;;;;;;;9.30;99.90;;;;;;8231435;28;19910;-85
2023/05/13 21:54:24;;;;;;;;;;;9.50;99.90;;;;;;8238801;28;19917;-85
2023/05/13 21:58:25;;;;;;;;;;;9.30;99.90;;;;;;8239345;28;19915;-84
2023/05/13 22:02:27;;;;;;;;;;;9.30;99.90;;;;;;8237163;28;19918;-84
2023/05/13 22:06:28;;;;;;;;;;;9.30;99.90;;;;;;8229739;28;20381;-85
2023/05/13 22:10:28;;;;;;;;;;;9.10;99.90;;;;;;8229083;28;19910;-84
2023/05/13 22:14:29;;;;;;;;;;;8.80;99.90;;;;;;8236541;28;19910;-84
2023/05/13 22:18:30;;;;;;;;;;;8.60;99.90;;;;;;8232882;28;19953;-84
2023/05/13 22:22:30;;;;;;;;;;;8.70;99.90;;;;;;8232925;28;19965;-84
2023/05/13 22:26:31;;;;;;;;;;;8.70;99.90;;;;;;8215732;28;19949;-84
2023/05/13 22:30:31;;;;;;;;;;;8.90;99.90;;;;;;8221451;28;19917;-85
2023/05/13 22:34:32;;;;;;;;;;;9.10;99.90;;;;;;8223039;28;19910;-85
2023/05/13 22:38:32;;;;;;;;;;;9.20;99.90;;;;;;8231074;28;19914;-86
2023/05/13 22:42:33;;;;;;;;;;;9.10;99.90;;;;;;8234867;28;19910;-85
2023/05/13 22:46:36;;;;;;;;;;;9.40;99.90;;;;;;8226353;28;19953;-84
2023/05/13 22:50:36;;;;;;;;;;;9.30;99.90;;;;;;8220132;28;19917;-84
2023/05/13 22:54:37;;;;;;;;;;;9.30;99.90;;;;;;8226267;28;20437;-85
2023/05/13 22:58:37;;;;;;;;;;;9.20;99.90;;;;;;8233264;28;19914;-85
2023/05/13 23:02:38;;;;;;;;;;;9.20;99.90;;;;;;8241572;28;19973;-89
2023/05/13 23:06:39;;;;;;;;;;;9.60;99.90;;;;;;8265896;28;19922;-84
2023/05/13 23:10:39;;;;;;;;;;;9.60;99.90;;;;;;8219707;28;20001;-85
2023/05/13 23:14:40;;;;;;;;;;;9.40;99.90;;;;;;8229210;28;19910;-84
2023/05/13 23:18:43;;;;;;;;;;;9.60;99.90;;;;;;8219443;28;19919;-84
2023/05/13 23:22:45;;;;;;;;;;;9.70;99.90;;;;;;8225641;28;19914;-85
2023/05/13 23:26:46;;;;;;;;;;;9.60;99.90;;;;;;8218829;28;20033;-84
2023/05/13 23:30:46;;;;;;;;;;;9.40;99.90;;;;;;8225286;28;19914;-84
2023/05/13 23:34:47;;;;;;;;;;;9.20;99.90;;;;;;8232968;28;19914;-84
2023/05/13 23:38:50;;;;;;;;;;;9.50;99.90;;;;;;8224865;28;19921;-84